sensor_id;sensor_type;location;lat;lon;timestamp;P1;durP1;ratioP1;P2;durP2;ratioP2
41546;SDS011;27271;45.412;10.852;2023-08-01T04:33:11;2.08;;;1.00;;
41546;SDS011;27271;45.412;10.852;2023-08-01T04:36:33;1.30;;;0.90;;
41546;SDS011;27271;45.412;10.852;2023-08-01T04:39:56;1.05;;;0.90;;
41546;SDS011;27271;45.412;10.852;2023-08-01T04:43:18;0.82;;;0.82;;
41546;SDS011;27271;45.412;10.852;2023-08-01T04:46:40;0.65;;;0.50;;
41546;SDS011;27271;45.412;10.852;2023-08-01T04:50:02;2.03;;;1.23;;
41546;SDS011;27271;45.412;10.852;2023-08-01T04:53:25;2.53;;;1.33;;
41546;SDS011;27271;45.412;10.852;2023-08-01T04:56:47;2.47;;;0.90;;
41546;SDS011;27271;45.412;10.852;2023-08-01T05:00:09;1.40;;;0.85;;
41546;SDS011;27271;45.412;10.852;2023-08-01T05:03:31;0.60;;;0.60;;
41546;SDS011;27271;45.412;10.852;2023-08-01T05:06:54;0.80;;;0.30;;
41546;SDS011;27271;45.412;10.852;2023-08-01T05:10:17;0.85;;;0.85;;
41546;SDS011;27271;45.412;10.852;2023-08-01T05:13:39;2.33;;;1.52;;
41546;SDS011;27271;45.412;10.852;2023-08-01T05:17:01;0.73;;;0.70;;
41546;SDS011;27271;45.412;10.852;2023-08-01T05:20:23;3.10;;;1.50;;
41546;SDS011;27271;45.412;10.852;2023-08-01T05:23:47;1.98;;;1.58;;
41546;SDS011;27271;45.412;10.852;2023-08-01T05:27:09;1.13;;;1.08;;
41546;SDS011;27271;45.412;10.852;2023-08-01T05:30:31;1.48;;;1.27;;
41546;SDS011;27271;45.412;10.852;2023-08-01T05:33:53;2.40;;;1.42;;
41546;SDS011;27271;45.412;10.852;2023-08-01T05:37:15;1.10;;;0.88;;
41546;SDS011;27271;45.412;10.852;2023-08-01T05:40:37;1.15;;;1.05;;
41546;SDS011;27271;45.412;10.852;2023-08-01T05:44:01;0.85;;;0.80;;
41546;SDS011;27271;45.412;10.852;2023-08-01T05:47:23;5.32;;;0.90;;
41546;SDS011;27271;45.412;10.852;2023-08-01T05:50:45;0.82;;;0.65;;
41546;SDS011;27271;45.412;10.852;2023-08-01T05:54:07;2.20;;;0.82;;
41546;SDS011;27271;45.412;10.852;2023-08-01T05:57:29;0.98;;;0.77;;
41546;SDS011;27271;45.412;10.852;2023-08-01T06:00:51;2.17;;;1.48;;
41546;SDS011;27271;45.412;10.852;2023-08-01T06:04:14;1.48;;;1.10;;
41546;SDS011;27271;45.412;10.852;2023-08-01T06:07:36;1.25;;;0.77;;
41546;SDS011;27271;45.412;10.852;2023-08-01T06:10:58;1.45;;;1.35;;
41546;SDS011;27271;45.412;10.852;2023-08-01T06:14:20;1.60;;;1.00;;
41546;SDS011;27271;45.412;10.852;2023-08-01T06:17:42;1.73;;;1.13;;
41546;SDS011;27271;45.412;10.852;2023-08-01T06:21:04;1.58;;;1.45;;
41546;SDS011;27271;45.412;10.852;2023-08-01T06:24:26;0.85;;;0.82;;
41546;SDS011;27271;45.412;10.852;2023-08-01T06:27:48;1.55;;;1.15;;
41546;SDS011;27271;45.412;10.852;2023-08-01T06:31:13;1.73;;;0.85;;
41546;SDS011;27271;45.412;10.852;2023-08-01T06:34:35;1.65;;;1.35;;
41546;SDS011;27271;45.412;10.852;2023-08-01T06:37:57;2.03;;;1.08;;
41546;SDS011;27271;45.412;10.852;2023-08-01T06:41:19;1.00;;;1.00;;
41546;SDS011;27271;45.412;10.852;2023-08-01T06:44:55;1.17;;;0.90;;
41546;SDS011;27271;45.412;10.852;2023-08-01T06:48:18;2.28;;;0.88;;
41546;SDS011;27271;45.412;10.852;2023-08-01T06:51:40;2.28;;;1.42;;
41546;SDS011;27271;45.412;10.852;2023-08-01T06:55:04;3.35;;;2.13;;
41546;SDS011;27271;45.412;10.852;2023-08-01T06:58:27;1.52;;;0.85;;
41546;SDS011;27271;45.412;10.852;2023-08-01T07:01:49;0.70;;;0.70;;
41546;SDS011;27271;45.412;10.852;2023-08-01T07:05:11;1.20;;;1.10;;
41546;SDS011;27271;45.412;10.852;2023-08-01T07:08:33;1.20;;;1.10;;
41546;SDS011;27271;45.412;10.852;2023-08-01T07:11:55;1.15;;;0.90;;
41546;SDS011;27271;45.412;10.852;2023-08-01T07:15:18;1.77;;;1.27;;
41546;SDS011;27271;45.412;10.852;2023-08-01T07:18:40;1.55;;;0.88;;
41546;SDS011;27271;45.412;10.852;2023-08-01T07:22:02;1.55;;;0.93;;
41546;SDS011;27271;45.412;10.852;2023-08-01T07:25:24;5.18;;;1.38;;
41546;SDS011;27271;45.412;10.852;2023-08-01T07:28:46;1.35;;;1.25;;
41546;SDS011;27271;45.412;10.852;2023-08-01T07:32:08;1.20;;;1.10;;
41546;SDS011;27271;45.412;10.852;2023-08-01T07:35:30;1.35;;;1.25;;
41546;SDS011;27271;45.412;10.852;2023-08-01T07:38:53;1.42;;;1.10;;
41546;SDS011;27271;45.412;10.852;2023-08-01T07:42:17;3.03;;;1.05;;
41546;SDS011;27271;45.412;10.852;2023-08-01T07:45:39;0.80;;;0.80;;
41546;SDS011;27271;45.412;10.852;2023-08-01T07:49:01;1.00;;;0.90;;
41546;SDS011;27271;45.412;10.852;2023-08-01T07:52:23;7.85;;;1.40;;
41546;SDS011;27271;45.412;10.852;2023-08-01T07:55:45;1.48;;;0.73;;
41546;SDS011;27271;45.412;10.852;2023-08-01T07:59:08;1.98;;;0.88;;
41546;SDS011;27271;45.412;10.852;2023-08-01T08:02:32;2.38;;;1.25;;
41546;SDS011;27271;45.412;10.852;2023-08-01T08:05:54;2.20;;;0.95;;
41546;SDS011;27271;45.412;10.852;2023-08-01T08:09:16;2.45;;;1.25;;
41546;SDS011;27271;45.412;10.852;2023-08-01T08:12:38;1.20;;;0.82;;
41546;SDS011;27271;45.412;10.852;2023-08-01T08:16:01;0.90;;;0.80;;
41546;SDS011;27271;45.412;10.852;2023-08-01T08:19:26;17.20;;;2.05;;
41546;SDS011;27271;45.412;10.852;2023-08-01T08:22:48;0.55;;;0.47;;
41546;SDS011;27271;45.412;10.852;2023-08-01T08:26:10;0.40;;;0.40;;
41546;SDS011;27271;45.412;10.852;2023-08-01T08:29:32;2.53;;;1.08;;
41546;SDS011;27271;45.412;10.852;2023-08-01T08:32:56;0.63;;;0.60;;
41546;SDS011;27271;45.412;10.852;2023-08-01T08:36:22;1.55;;;0.90;;
41546;SDS011;27271;45.412;10.852;2023-08-01T08:39:45;0.75;;;0.75;;
41546;SDS011;27271;45.412;10.852;2023-08-01T08:43:08;0.82;;;0.82;;
41546;SDS011;27271;45.412;10.852;2023-08-01T08:46:31;0.43;;;0.43;;
41546;SDS011;27271;45.412;10.852;2023-08-01T08:50:01;2.22;;;0.52;;
41546;SDS011;27271;45.412;10.852;2023-08-01T08:53:24;0.70;;;0.70;;
41546;SDS011;27271;45.412;10.852;2023-08-01T08:57:05;0.93;;;0.50;;
41546;SDS011;27271;45.412;10.852;2023-08-01T09:00:31;2.67;;;0.70;;
41546;SDS011;27271;45.412;10.852;2023-08-01T09:03:53;1.60;;;0.90;;
41546;SDS011;27271;45.412;10.852;2023-08-01T09:07:17;0.90;;;0.63;;
41546;SDS011;27271;45.412;10.852;2023-08-01T09:10:43;1.20;;;0.70;;
41546;SDS011;27271;45.412;10.852;2023-08-01T09:14:05;1.02;;;0.55;;
41546;SDS011;27271;45.412;10.852;2023-08-01T09:17:27;1.02;;;0.90;;
41546;SDS011;27271;45.412;10.852;2023-08-01T09:20:49;1.75;;;0.80;;
41546;SDS011;27271;45.412;10.852;2023-08-01T09:24:16;1.95;;;1.30;;
41546;SDS011;27271;45.412;10.852;2023-08-01T09:27:39;1.05;;;0.68;;
41546;SDS011;27271;45.412;10.852;2023-08-01T09:31:02;0.80;;;0.77;;
41546;SDS011;27271;45.412;10.852;2023-08-01T09:34:25;1.10;;;0.98;;
41546;SDS011;27271;45.412;10.852;2023-08-01T09:37:48;2.03;;;0.70;;
41546;SDS011;27271;45.412;10.852;2023-08-01T09:41:16;1.10;;;0.70;;
41546;SDS011;27271;45.412;10.852;2023-08-01T09:44:39;0.77;;;0.73;;
41546;SDS011;27271;45.412;10.852;2023-08-01T09:48:08;0.70;;;0.70;;
41546;SDS011;27271;45.412;10.852;2023-08-01T09:51:30;1.08;;;0.80;;
41546;SDS011;27271;45.412;10.852;2023-08-01T09:54:53;1.52;;;0.73;;
41546;SDS011;27271;45.412;10.852;2023-08-01T09:58:15;1.15;;;0.80;;
41546;SDS011;27271;45.412;10.852;2023-08-01T10:01:42;1.10;;;1.00;;
41546;SDS011;27271;45.412;10.852;2023-08-01T10:05:09;0.80;;;0.68;;
41546;SDS011;27271;45.412;10.852;2023-08-01T10:08:33;2.70;;;1.20;;
41546;SDS011;27271;45.412;10.852;2023-08-01T10:11:57;1.02;;;0.70;;
41546;SDS011;27271;45.412;10.852;2023-08-01T10:15:20;0.77;;;0.77;;
41546;SDS011;27271;45.412;10.852;2023-08-01T10:18:43;0.40;;;0.40;;
41546;SDS011;27271;45.412;10.852;2023-08-01T10:22:06;2.25;;;1.33;;
41546;SDS011;27271;45.412;10.852;2023-08-01T10:25:29;0.75;;;0.68;;
41546;SDS011;27271;45.412;10.852;2023-08-01T10:28:53;1.33;;;0.75;;
41546;SDS011;27271;45.412;10.852;2023-08-01T10:32:15;1.40;;;0.60;;
41546;SDS011;27271;45.412;10.852;2023-08-01T10:35:39;1.83;;;0.90;;
41546;SDS011;27271;45.412;10.852;2023-08-01T10:39:02;0.88;;;0.70;;
41546;SDS011;27271;45.412;10.852;2023-08-01T10:42:25;0.95;;;0.82;;
41546;SDS011;27271;45.412;10.852;2023-08-01T10:46:02;0.93;;;0.82;;
41546;SDS011;27271;45.412;10.852;2023-08-01T10:49:33;0.68;;;0.68;;
41546;SDS011;27271;45.412;10.852;2023-08-01T10:53:01;3.60;;;1.15;;
41546;SDS011;27271;45.412;10.852;2023-08-01T10:56:29;1.15;;;1.00;;
41546;SDS011;27271;45.412;10.852;2023-08-01T11:03:19;1.15;;;0.98;;
41546;SDS011;27271;45.412;10.852;2023-08-01T11:07:00;1.50;;;1.08;;
41546;SDS011;27271;45.412;10.852;2023-08-01T11:10:24;1.42;;;0.90;;
41546;SDS011;27271;45.412;10.852;2023-08-01T11:13:55;0.57;;;0.57;;
41546;SDS011;27271;45.412;10.852;2023-08-01T11:17:18;0.73;;;0.70;;
41546;SDS011;27271;45.412;10.852;2023-08-01T11:20:40;0.98;;;0.98;;
41546;SDS011;27271;45.412;10.852;2023-08-01T11:24:06;0.90;;;0.90;;
41546;SDS011;27271;45.412;10.852;2023-08-01T11:27:28;1.10;;;0.80;;
41546;SDS011;27271;45.412;10.852;2023-08-01T11:30:51;0.63;;;0.55;;
41546;SDS011;27271;45.412;10.852;2023-08-01T11:34:13;1.02;;;0.93;;
41546;SDS011;27271;45.412;10.852;2023-08-01T11:37:35;0.95;;;0.90;;
41546;SDS011;27271;45.412;10.852;2023-08-01T11:40:57;1.40;;;1.00;;
41546;SDS011;27271;45.412;10.852;2023-08-01T11:44:23;1.08;;;0.98;;
41546;SDS011;27271;45.412;10.852;2023-08-01T11:47:46;1.05;;;0.68;;
41546;SDS011;27271;45.412;10.852;2023-08-01T11:51:09;1.83;;;1.63;;
41546;SDS011;27271;45.412;10.852;2023-08-01T11:54:31;1.02;;;0.95;;
41546;SDS011;27271;45.412;10.852;2023-08-01T11:57:53;1.02;;;1.00;;
41546;SDS011;27271;45.412;10.852;2023-08-01T12:01:16;1.33;;;1.17;;
41546;SDS011;27271;45.412;10.852;2023-08-01T12:04:39;1.38;;;1.15;;
41546;SDS011;27271;45.412;10.852;2023-08-01T12:08:11;2.00;;;1.08;;
41546;SDS011;27271;45.412;10.852;2023-08-01T12:11:35;1.40;;;1.02;;
41546;SDS011;27271;45.412;10.852;2023-08-01T12:14:57;2.17;;;1.60;;
41546;SDS011;27271;45.412;10.852;2023-08-01T12:18:20;0.88;;;0.88;;
41546;SDS011;27271;45.412;10.852;2023-08-01T12:22:05;1.50;;;0.95;;
41546;SDS011;27271;45.412;10.852;2023-08-01T12:25:28;1.63;;;1.10;;
41546;SDS011;27271;45.412;10.852;2023-08-01T12:28:50;3.33;;;0.95;;
41546;SDS011;27271;45.412;10.852;2023-08-01T12:32:12;0.75;;;0.60;;
41546;SDS011;27271;45.412;10.852;2023-08-01T12:35:38;1.42;;;1.08;;
41546;SDS011;27271;45.412;10.852;2023-08-01T12:39:03;1.35;;;1.20;;
41546;SDS011;27271;45.412;10.852;2023-08-01T12:42:26;1.35;;;1.10;;
41546;SDS011;27271;45.412;10.852;2023-08-01T12:45:48;2.25;;;0.75;;
41546;SDS011;27271;45.412;10.852;2023-08-01T12:49:14;1.67;;;1.48;;
41546;SDS011;27271;45.412;10.852;2023-08-01T12:52:36;0.85;;;0.57;;
41546;SDS011;27271;45.412;10.852;2023-08-01T12:55:58;1.48;;;1.38;;
41546;SDS011;27271;45.412;10.852;2023-08-01T12:59:20;0.68;;;0.65;;
41546;SDS011;27271;45.412;10.852;2023-08-01T13:02:43;1.02;;;0.98;;
41546;SDS011;27271;45.412;10.852;2023-08-01T13:06:05;2.25;;;0.95;;
41546;SDS011;27271;45.412;10.852;2023-08-01T13:09:27;0.80;;;0.63;;
41546;SDS011;27271;45.412;10.852;2023-08-01T13:12:49;1.85;;;0.82;;
41546;SDS011;27271;45.412;10.852;2023-08-01T13:16:11;2.47;;;1.50;;
41546;SDS011;27271;45.412;10.852;2023-08-01T13:19:33;1.38;;;1.27;;
41546;SDS011;27271;45.412;10.852;2023-08-01T13:22:55;1.75;;;0.95;;
41546;SDS011;27271;45.412;10.852;2023-08-01T13:26:17;1.42;;;1.30;;
41546;SDS011;27271;45.412;10.852;2023-08-01T13:29:39;1.73;;;1.17;;
41546;SDS011;27271;45.412;10.852;2023-08-01T13:33:02;1.75;;;1.40;;
41546;SDS011;27271;45.412;10.852;2023-08-01T13:36:24;1.65;;;1.13;;
41546;SDS011;27271;45.412;10.852;2023-08-01T13:39:46;1.35;;;1.08;;
41546;SDS011;27271;45.412;10.852;2023-08-01T13:43:08;1.10;;;0.98;;
41546;SDS011;27271;45.412;10.852;2023-08-01T13:46:30;2.08;;;1.35;;
41546;SDS011;27271;45.412;10.852;2023-08-01T13:49:52;3.20;;;1.42;;
41546;SDS011;27271;45.412;10.852;2023-08-01T13:53:14;1.55;;;1.05;;
41546;SDS011;27271;45.412;10.852;2023-08-01T13:56:38;5.43;;;1.63;;
41546;SDS011;27271;45.412;10.852;2023-08-01T14:00:00;1.75;;;1.20;;
41546;SDS011;27271;45.412;10.852;2023-08-01T14:03:36;2.10;;;1.70;;
41546;SDS011;27271;45.412;10.852;2023-08-01T14:06:59;2.45;;;1.85;;
41546;SDS011;27271;45.412;10.852;2023-08-01T14:10:21;2.70;;;1.02;;
41546;SDS011;27271;45.412;10.852;2023-08-01T14:13:43;2.25;;;1.92;;
41546;SDS011;27271;45.412;10.852;2023-08-01T14:17:06;1.70;;;1.05;;
41546;SDS011;27271;45.412;10.852;2023-08-01T14:20:28;2.53;;;1.40;;
41546;SDS011;27271;45.412;10.852;2023-08-01T14:23:50;2.88;;;1.05;;
41546;SDS011;27271;45.412;10.852;2023-08-01T14:27:12;4.78;;;1.85;;
41546;SDS011;27271;45.412;10.852;2023-08-01T14:30:34;4.28;;;1.38;;
41546;SDS011;27271;45.412;10.852;2023-08-01T14:33:56;1.55;;;1.45;;
41546;SDS011;27271;45.412;10.852;2023-08-01T14:37:18;2.17;;;1.90;;
41546;SDS011;27271;45.412;10.852;2023-08-01T14:40:40;1.20;;;1.10;;
41546;SDS011;27271;45.412;10.852;2023-08-01T14:44:10;1.67;;;1.23;;
41546;SDS011;27271;45.412;10.852;2023-08-01T14:47:32;1.33;;;1.10;;
41546;SDS011;27271;45.412;10.852;2023-08-01T14:50:56;1.23;;;1.13;;
41546;SDS011;27271;45.412;10.852;2023-08-01T14:54:18;2.03;;;1.35;;
41546;SDS011;27271;45.412;10.852;2023-08-01T14:58:00;2.40;;;1.27;;
41546;SDS011;27271;45.412;10.852;2023-08-01T15:01:22;2.45;;;1.75;;
41546;SDS011;27271;45.412;10.852;2023-08-01T15:04:44;1.33;;;0.90;;
41546;SDS011;27271;45.412;10.852;2023-08-01T15:08:07;3.30;;;1.50;;
41546;SDS011;27271;45.412;10.852;2023-08-01T15:11:29;1.00;;;0.98;;
41546;SDS011;27271;45.412;10.852;2023-08-01T15:14:51;1.27;;;1.15;;
41546;SDS011;27271;45.412;10.852;2023-08-01T15:18:13;2.30;;;1.38;;
41546;SDS011;27271;45.412;10.852;2023-08-01T15:21:35;2.50;;;2.03;;
41546;SDS011;27271;45.412;10.852;2023-08-01T15:24:57;2.95;;;1.52;;
41546;SDS011;27271;45.412;10.852;2023-08-01T15:28:19;1.48;;;1.10;;
41546;SDS011;27271;45.412;10.852;2023-08-01T15:31:42;1.00;;;1.00;;
41546;SDS011;27271;45.412;10.852;2023-08-01T15:35:04;1.40;;;1.00;;
41546;SDS011;27271;45.412;10.852;2023-08-01T15:38:26;5.43;;;1.65;;
41546;SDS011;27271;45.412;10.852;2023-08-01T15:41:48;2.83;;;1.80;;
41546;SDS011;27271;45.412;10.852;2023-08-01T15:45:10;2.42;;;1.70;;
41546;SDS011;27271;45.412;10.852;2023-08-01T15:48:33;1.38;;;1.20;;
41546;SDS011;27271;45.412;10.852;2023-08-01T15:51:55;2.58;;;1.75;;
41546;SDS011;27271;45.412;10.852;2023-08-01T15:55:19;2.67;;;1.17;;
41546;SDS011;27271;45.412;10.852;2023-08-01T15:58:41;4.07;;;2.28;;
41546;SDS011;27271;45.412;10.852;2023-08-01T16:02:03;2.17;;;1.75;;
41546;SDS011;27271;45.412;10.852;2023-08-01T16:05:25;3.97;;;1.58;;
41546;SDS011;27271;45.412;10.852;2023-08-01T16:08:47;2.75;;;1.55;;
41546;SDS011;27271;45.412;10.852;2023-08-01T16:12:10;4.95;;;1.58;;
41546;SDS011;27271;45.412;10.852;2023-08-01T16:15:32;4.90;;;1.48;;
41546;SDS011;27271;45.412;10.852;2023-08-01T16:18:54;3.25;;;2.35;;
41546;SDS011;27271;45.412;10.852;2023-08-01T16:22:16;2.30;;;1.80;;
41546;SDS011;27271;45.412;10.852;2023-08-01T16:25:39;4.20;;;1.65;;
41546;SDS011;27271;45.412;10.852;2023-08-01T16:29:01;3.70;;;2.13;;
41546;SDS011;27271;45.412;10.852;2023-08-01T16:32:23;2.15;;;1.60;;
41546;SDS011;27271;45.412;10.852;2023-08-01T16:35:45;4.95;;;2.13;;
41546;SDS011;27271;45.412;10.852;2023-08-01T16:39:08;2.10;;;1.58;;
41546;SDS011;27271;45.412;10.852;2023-08-01T16:42:30;3.78;;;1.55;;
41546;SDS011;27271;45.412;10.852;2023-08-01T16:45:52;8.82;;;2.60;;
41546;SDS011;27271;45.412;10.852;2023-08-01T16:49:14;3.10;;;1.63;;
41546;SDS011;27271;45.412;10.852;2023-08-01T16:52:44;2.28;;;1.98;;
41546;SDS011;27271;45.412;10.852;2023-08-01T16:56:42;2.08;;;1.55;;
41546;SDS011;27271;45.412;10.852;2023-08-01T17:01:53;4.45;;;2.40;;
41546;SDS011;27271;45.412;10.852;2023-08-01T17:05:25;1.33;;;1.15;;
41546;SDS011;27271;45.412;10.852;2023-08-01T17:08:50;0.98;;;0.88;;
41546;SDS011;27271;45.412;10.852;2023-08-01T17:12:12;3.00;;;1.52;;
41546;SDS011;27271;45.412;10.852;2023-08-01T17:15:36;1.63;;;1.08;;
41546;SDS011;27271;45.412;10.852;2023-08-01T17:18:58;2.83;;;1.60;;
41546;SDS011;27271;45.412;10.852;2023-08-01T17:22:20;6.15;;;3.90;;
41546;SDS011;27271;45.412;10.852;2023-08-01T17:25:45;3.00;;;2.30;;
41546;SDS011;27271;45.412;10.852;2023-08-01T17:29:07;1.77;;;1.67;;
41546;SDS011;27271;45.412;10.852;2023-08-01T17:32:31;1.27;;;1.17;;
41546;SDS011;27271;45.412;10.852;2023-08-01T17:35:53;2.42;;;2.20;;
41546;SDS011;27271;45.412;10.852;2023-08-01T17:39:16;2.50;;;1.95;;
41546;SDS011;27271;45.412;10.852;2023-08-01T17:42:38;1.45;;;1.35;;
41546;SDS011;27271;45.412;10.852;2023-08-01T17:46:03;2.63;;;1.77;;
41546;SDS011;27271;45.412;10.852;2023-08-01T17:49:25;1.35;;;1.20;;
41546;SDS011;27271;45.412;10.852;2023-08-01T17:53:28;2.80;;;1.73;;
41546;SDS011;27271;45.412;10.852;2023-08-01T17:57:19;9.10;;;1.90;;
41546;SDS011;27271;45.412;10.852;2023-08-01T18:00:42;3.67;;;1.98;;
41546;SDS011;27271;45.412;10.852;2023-08-01T18:04:13;1.08;;;0.98;;
41546;SDS011;27271;45.412;10.852;2023-08-01T18:07:35;3.50;;;1.58;;
41546;SDS011;27271;45.412;10.852;2023-08-01T18:10:58;2.35;;;1.50;;
41546;SDS011;27271;45.412;10.852;2023-08-01T18:14:20;3.78;;;1.30;;
41546;SDS011;27271;45.412;10.852;2023-08-01T18:17:42;4.25;;;2.28;;
41546;SDS011;27271;45.412;10.852;2023-08-01T18:21:05;2.88;;;1.77;;
41546;SDS011;27271;45.412;10.852;2023-08-01T18:24:32;3.25;;;2.13;;
41546;SDS011;27271;45.412;10.852;2023-08-01T18:27:54;1.65;;;1.25;;
41546;SDS011;27271;45.412;10.852;2023-08-01T18:31:18;2.55;;;1.85;;
41546;SDS011;27271;45.412;10.852;2023-08-01T18:34:40;3.28;;;2.05;;
41546;SDS011;27271;45.412;10.852;2023-08-01T18:38:02;2.20;;;1.50;;
41546;SDS011;27271;45.412;10.852;2023-08-01T18:41:24;2.10;;;1.88;;
41546;SDS011;27271;45.412;10.852;2023-08-01T18:44:59;2.95;;;1.30;;
41546;SDS011;27271;45.412;10.852;2023-08-01T18:48:36;3.80;;;2.17;;
41546;SDS011;27271;45.412;10.852;2023-08-01T18:52:21;6.75;;;1.98;;
41546;SDS011;27271;45.412;10.852;2023-08-01T18:56:08;2.70;;;2.15;;
41546;SDS011;27271;45.412;10.852;2023-08-01T19:03:01;3.95;;;1.95;;
41546;SDS011;27271;45.412;10.852;2023-08-01T19:06:55;4.28;;;2.80;;
41546;SDS011;27271;45.412;10.852;2023-08-01T19:10:57;3.88;;;2.42;;
41546;SDS011;27271;45.412;10.852;2023-08-01T19:15:04;2.83;;;2.28;;
41546;SDS011;27271;45.412;10.852;2023-08-01T19:18:27;4.95;;;2.60;;
41546;SDS011;27271;45.412;10.852;2023-08-01T19:21:51;7.15;;;2.15;;
41546;SDS011;27271;45.412;10.852;2023-08-01T19:29:08;2.03;;;1.83;;
41546;SDS011;27271;45.412;10.852;2023-08-01T19:32:32;3.67;;;2.05;;
41546;SDS011;27271;45.412;10.852;2023-08-01T19:35:55;3.63;;;2.55;;
41546;SDS011;27271;45.412;10.852;2023-08-01T19:39:19;4.80;;;2.00;;
41546;SDS011;27271;45.412;10.852;2023-08-01T19:42:45;3.58;;;2.15;;
41546;SDS011;27271;45.412;10.852;2023-08-01T19:46:16;4.57;;;3.30;;
41546;SDS011;27271;45.412;10.852;2023-08-01T19:49:40;3.30;;;2.00;;
41546;SDS011;27271;45.412;10.852;2023-08-01T19:53:22;2.40;;;1.73;;
41546;SDS011;27271;45.412;10.852;2023-08-01T19:56:46;5.10;;;2.42;;
41546;SDS011;27271;45.412;10.852;2023-08-01T20:00:10;2.42;;;1.75;;
41546;SDS011;27271;45.412;10.852;2023-08-01T20:03:33;3.20;;;2.10;;
41546;SDS011;27271;45.412;10.852;2023-08-01T20:06:56;3.45;;;1.75;;
41546;SDS011;27271;45.412;10.852;2023-08-01T20:10:23;7.22;;;2.88;;
41546;SDS011;27271;45.412;10.852;2023-08-01T20:13:56;2.30;;;1.63;;
41546;SDS011;27271;45.412;10.852;2023-08-01T20:17:20;3.90;;;2.75;;
41546;SDS011;27271;45.412;10.852;2023-08-01T20:20:47;5.35;;;2.50;;
41546;SDS011;27271;45.412;10.852;2023-08-01T20:24:11;4.68;;;2.67;;
41546;SDS011;27271;45.412;10.852;2023-08-01T20:27:47;4.70;;;2.67;;
41546;SDS011;27271;45.412;10.852;2023-08-01T20:31:09;5.43;;;2.80;;
41546;SDS011;27271;45.412;10.852;2023-08-01T20:34:31;3.72;;;3.13;;
41546;SDS011;27271;45.412;10.852;2023-08-01T20:37:54;5.45;;;2.83;;
41546;SDS011;27271;45.412;10.852;2023-08-01T20:41:16;5.43;;;2.85;;
41546;SDS011;27271;45.412;10.852;2023-08-01T20:44:38;7.13;;;3.75;;
41546;SDS011;27271;45.412;10.852;2023-08-01T20:48:00;3.05;;;2.03;;
41546;SDS011;27271;45.412;10.852;2023-08-01T20:51:28;3.90;;;2.83;;
41546;SDS011;27271;45.412;10.852;2023-08-01T20:54:50;6.50;;;2.55;;
41546;SDS011;27271;45.412;10.852;2023-08-01T20:58:12;5.05;;;3.08;;
41546;SDS011;27271;45.412;10.852;2023-08-01T21:01:34;4.00;;;2.70;;
41546;SDS011;27271;45.412;10.852;2023-08-01T21:04:56;4.88;;;2.80;;
41546;SDS011;27271;45.412;10.852;2023-08-01T21:08:19;4.38;;;2.95;;
41546;SDS011;27271;45.412;10.852;2023-08-01T21:11:41;5.15;;;2.92;;
41546;SDS011;27271;45.412;10.852;2023-08-01T21:15:04;6.28;;;3.60;;
41546;SDS011;27271;45.412;10.852;2023-08-01T21:18:28;5.18;;;2.83;;
41546;SDS011;27271;45.412;10.852;2023-08-01T21:21:50;3.90;;;3.33;;
41546;SDS011;27271;45.412;10.852;2023-08-01T21:25:12;5.18;;;2.78;;
41546;SDS011;27271;45.412;10.852;2023-08-01T21:28:34;4.13;;;2.75;;
41546;SDS011;27271;45.412;10.852;2023-08-01T21:31:56;6.53;;;4.00;;
41546;SDS011;27271;45.412;10.852;2023-08-01T21:35:20;7.40;;;4.00;;
41546;SDS011;27271;45.412;10.852;2023-08-01T21:38:45;4.18;;;2.35;;
41546;SDS011;27271;45.412;10.852;2023-08-01T21:42:07;8.75;;;3.05;;
41546;SDS011;27271;45.412;10.852;2023-08-01T21:45:33;4.40;;;2.13;;
41546;SDS011;27271;45.412;10.852;2023-08-01T21:48:56;4.57;;;2.75;;
41546;SDS011;27271;45.412;10.852;2023-08-01T21:52:19;4.35;;;2.47;;
41546;SDS011;27271;45.412;10.852;2023-08-01T21:55:41;5.95;;;2.97;;
41546;SDS011;27271;45.412;10.852;2023-08-01T21:59:03;2.92;;;1.95;;
41546;SDS011;27271;45.412;10.852;2023-08-01T22:02:25;3.35;;;2.50;;
41546;SDS011;27271;45.412;10.852;2023-08-01T22:05:53;4.05;;;2.95;;
41546;SDS011;27271;45.412;10.852;2023-08-01T22:09:16;6.43;;;3.70;;
41546;SDS011;27271;45.412;10.852;2023-08-01T22:12:38;6.13;;;3.78;;
41546;SDS011;27271;45.412;10.852;2023-08-01T22:16:03;5.88;;;3.95;;
41546;SDS011;27271;45.412;10.852;2023-08-01T22:19:26;6.07;;;2.83;;
41546;SDS011;27271;45.412;10.852;2023-08-01T22:22:48;5.35;;;3.28;;
41546;SDS011;27271;45.412;10.852;2023-08-01T22:26:10;5.05;;;3.17;;
41546;SDS011;27271;45.412;10.852;2023-08-01T22:29:32;5.35;;;2.55;;
